Alta, Illinois
Current Conditions -  °F | °C
As of 4:54 PM on Thursday 23 Oct 2014 (Local Time) from KPIA Reporting Station
Overcast Overcast  
Wind Chill: 61°   Ceiling: 7000
Heat Index: 61°   Visibility: 10mi
Dew Point: 43°   Wind: 13mph
Humidity: 52%   Direction: 190°S
Pressure: 30.07"   Gusts: NA
Location:  40.7792°N, 89.6377°W
Report Text: KPIA 232154Z 19011KT 10SM OVC070 16/06 A3007 RMK AO2 SLP183 T01610061
Loading
Personal Weather Stations






























Interactive Weather Map
Tropical Storm Tracking
New forecast layout! Learn more

10-Day Weather Forecast

Advertisements
Track Severe Weather on mobile